createdAt,value
2022-12-18T00:01:32.664Z,18.83
2022-12-18T00:04:01.883Z,20.23
2022-12-18T00:06:31.125Z,19.03
2022-12-18T00:08:59.953Z,20.77
2022-12-18T00:11:30.245Z,21.85
2022-12-18T00:14:00.037Z,20.10
2022-12-18T00:16:29.001Z,20.45
2022-12-18T00:19:07.861Z,20.07
2022-12-18T00:21:35.737Z,18.63
2022-12-18T00:24:03.598Z,20.27
2022-12-18T00:26:33.180Z,19.25
2022-12-18T00:29:08.928Z,19.55
2022-12-18T00:31:37.272Z,19.07
2022-12-18T00:34:05.209Z,18.20
2022-12-18T00:36:35.116Z,19.15
2022-12-18T00:39:05.822Z,18.23
2022-12-18T00:42:06.080Z,17.30
2022-12-18T00:44:33.573Z,18.43
2022-12-18T00:47:00.986Z,18.27
2022-12-18T00:49:28.531Z,19.08
2022-12-18T00:51:57.521Z,16.73
2022-12-18T00:54:25.280Z,17.38
2022-12-18T00:56:53.165Z,17.70
2022-12-18T00:59:20.983Z,16.83
2022-12-18T01:01:49.995Z,17.58
2022-12-18T01:04:17.738Z,17.45
2022-12-18T01:06:47.122Z,16.73
2022-12-18T01:09:14.882Z,16.77
2022-12-18T01:11:42.375Z,15.82
2022-12-18T01:14:12.026Z,15.98
2022-12-18T01:16:39.731Z,15.95
2022-12-18T01:19:07.184Z,15.70
2022-12-18T01:21:34.960Z,16.03
2022-12-18T01:24:05.715Z,15.27
2022-12-18T01:26:33.718Z,15.10
2022-12-18T01:29:01.329Z,15.05
2022-12-18T01:31:32.305Z,14.73
2022-12-18T01:34:03.107Z,13.87
2022-12-18T01:36:36.134Z,14.05
2022-12-18T01:39:07.882Z,14.43
2022-12-18T01:41:55.070Z,13.57
2022-12-18T01:45:07.366Z,15.63
2022-12-18T01:47:40.794Z,13.30
2022-12-18T01:50:18.241Z,12.15
2022-12-18T01:52:53.228Z,13.18
2022-12-18T01:55:25.075Z,14.50
2022-12-18T01:57:58.156Z,15.02
2022-12-18T02:00:26.735Z,13.70
2022-12-18T02:02:55.148Z,14.18
2022-12-18T02:05:49.477Z,13.80
2022-12-18T02:08:28.853Z,14.63
2022-12-18T02:11:31.796Z,15.95
2022-12-18T02:14:14.320Z,14.63
2022-12-18T02:17:05.495Z,16.92
2022-12-18T02:19:42.642Z,15.98
2022-12-18T02:22:42.253Z,21.27
2022-12-18T02:25:18.798Z,35.35
2022-12-18T02:27:48.627Z,22.70
2022-12-18T02:30:17.166Z,44.15
2022-12-18T02:32:51.125Z,49.63
2022-12-18T02:35:25.130Z,56.92
2022-12-18T02:37:56.652Z,53.05
2022-12-18T02:40:27.856Z,66.27
2022-12-18T02:42:55.613Z,53.90
2022-12-18T02:45:24.564Z,61.72
2022-12-18T02:47:53.342Z,77.15
2022-12-18T02:50:39.830Z,67.40
2022-12-18T02:53:13.051Z,65.47
2022-12-18T02:56:09.983Z,35.95
2022-12-18T02:59:05.978Z,41.58
2022-12-18T03:01:53.909Z,35.45
2022-12-18T03:04:25.826Z,34.70
2022-12-18T03:06:57.288Z,45.80
2022-12-18T03:09:37.077Z,31.42
2022-12-18T03:12:35.883Z,29.98
2022-12-18T03:15:17.295Z,30.95
2022-12-18T03:17:51.958Z,28.00
2022-12-18T03:20:22.835Z,34.93
2022-12-18T03:22:55.173Z,33.17
2022-12-18T03:25:27.091Z,36.60
2022-12-18T03:28:00.159Z,35.67
2022-12-18T03:30:29.871Z,33.25
2022-12-18T03:33:21.512Z,40.93
2022-12-18T03:35:52.352Z,27.38
2022-12-18T03:38:20.327Z,22.42
2022-12-18T03:41:02.877Z,26.75
2022-12-18T03:44:15.269Z,22.15
2022-12-18T03:46:50.693Z,20.50
2022-12-18T03:49:33.849Z,20.25
2022-12-18T03:52:21.382Z,19.35
2022-12-18T03:54:50.080Z,20.45
2022-12-18T03:57:22.229Z,23.30
2022-12-18T03:59:56.572Z,20.53
2022-12-18T04:02:27.234Z,20.10
2022-12-18T04:05:00.545Z,21.52
2022-12-18T04:07:29.078Z,19.80
2022-12-18T04:10:01.806Z,20.45
2022-12-18T04:12:31.735Z,18.97
2022-12-18T04:14:59.298Z,17.92
2022-12-18T04:17:27.381Z,18.25
2022-12-18T04:19:55.115Z,18.05
2022-12-18T04:22:23.760Z,17.77
2022-12-18T04:24:56.344Z,16.90
2022-12-18T04:27:31.790Z,17.50
2022-12-18T04:30:00.604Z,16.45
2022-12-18T04:32:29.689Z,17.15
2022-12-18T04:34:57.270Z,16.13
2022-12-18T04:37:25.196Z,15.53
2022-12-18T04:39:53.087Z,15.18
2022-12-18T04:42:27.757Z,15.55
2022-12-18T04:44:55.282Z,14.57
2022-12-18T04:47:22.839Z,15.88
2022-12-18T04:49:50.365Z,15.30
2022-12-18T04:52:18.222Z,14.05
2022-12-18T04:54:46.016Z,14.30
2022-12-18T04:57:13.350Z,14.07
2022-12-18T04:59:41.468Z,15.45
2022-12-18T05:02:08.938Z,15.17
2022-12-18T05:04:36.382Z,15.05
2022-12-18T05:07:03.832Z,13.88
2022-12-18T05:09:31.267Z,13.13
2022-12-18T05:11:58.794Z,12.93
2022-12-18T05:14:26.157Z,12.43
2022-12-18T05:16:56.764Z,12.82
2022-12-18T05:19:28.198Z,12.43
2022-12-18T05:21:55.549Z,12.85
2022-12-18T05:24:22.932Z,12.13
2022-12-18T05:26:51.079Z,11.97
2022-12-18T05:29:18.838Z,12.98
2022-12-18T05:31:46.524Z,13.20
2022-12-18T05:34:14.007Z,12.60
2022-12-18T05:36:42.132Z,12.20
2022-12-18T05:39:09.997Z,11.73
2022-12-18T05:41:37.540Z,12.70
2022-12-18T05:44:05.169Z,13.63
2022-12-18T05:46:33.648Z,12.68
2022-12-18T05:49:02.435Z,12.75
2022-12-18T05:51:29.876Z,11.53
2022-12-18T05:53:57.266Z,11.68
2022-12-18T05:56:24.868Z,12.68
2022-12-18T05:58:54.351Z,13.13
2022-12-18T06:01:26.416Z,13.55
2022-12-18T06:03:54.683Z,12.30
2022-12-18T06:06:29.221Z,12.27
2022-12-18T06:08:57.032Z,12.60
2022-12-18T06:11:27.204Z,12.13
2022-12-18T06:13:58.723Z,13.77
2022-12-18T06:16:30.419Z,13.27
2022-12-18T06:19:03.139Z,12.77
2022-12-18T06:21:31.423Z,14.18
2022-12-18T06:24:00.116Z,12.98
2022-12-18T06:26:28.743Z,13.02
2022-12-18T06:28:56.978Z,12.37
2022-12-18T06:31:25.380Z,13.02
2022-12-18T06:33:52.953Z,14.45
2022-12-18T06:36:22.415Z,13.15
2022-12-18T06:38:50.347Z,13.00
2022-12-18T06:41:20.352Z,13.40
2022-12-18T06:43:48.345Z,13.00
2022-12-18T06:46:16.086Z,12.05
2022-12-18T06:48:43.718Z,12.48
2022-12-18T06:51:12.539Z,12.52
2022-12-18T06:53:40.461Z,11.53
2022-12-18T06:56:10.658Z,13.07
2022-12-18T06:58:39.316Z,13.00
2022-12-18T07:01:09.126Z,11.88
2022-12-18T07:03:37.068Z,11.50
2022-12-18T07:06:05.168Z,11.50
2022-12-18T07:08:33.634Z,11.52
2022-12-18T07:11:04.724Z,12.32
2022-12-18T07:13:32.420Z,12.38
2022-12-18T07:16:19.672Z,11.45
2022-12-18T07:18:51.568Z,11.10
2022-12-18T07:21:20.728Z,11.32
2022-12-18T07:23:49.638Z,12.57
2022-12-18T07:26:19.252Z,12.05
2022-12-18T07:28:47.386Z,16.88
2022-12-18T07:31:21.555Z,22.37
2022-12-18T07:33:49.811Z,31.15
2022-12-18T07:36:17.516Z,22.30
2022-12-18T07:38:44.971Z,24.35
2022-12-18T07:41:14.586Z,44.63
2022-12-18T07:43:43.609Z,35.13
2022-12-18T07:46:13.448Z,35.80
2022-12-18T07:48:46.233Z,20.40
2022-12-18T07:51:17.436Z,15.13
2022-12-18T07:53:45.925Z,56.88
2022-12-18T07:56:31.162Z,34.17
2022-12-18T07:59:00.761Z,31.52
2022-12-18T08:01:28.756Z,21.08
2022-12-18T08:03:57.052Z,15.02
2022-12-18T08:06:28.088Z,11.30
2022-12-18T08:08:57.678Z,10.70
2022-12-18T08:11:26.978Z,10.45
2022-12-18T08:13:54.937Z,14.93
2022-12-18T08:16:24.908Z,19.45
2022-12-18T08:18:54.050Z,25.38
2022-12-18T08:21:25.676Z,204.63
2022-12-18T08:23:54.870Z,260.23
2022-12-18T08:26:23.183Z,462.13
2022-12-18T08:28:54.605Z,456.02
2022-12-18T08:31:22.378Z,438.70
2022-12-18T08:33:53.016Z,294.13
2022-12-18T08:36:21.801Z,355.58
2022-12-18T08:38:49.153Z,85.57
2022-12-18T08:41:18.551Z,53.42
2022-12-18T08:44:04.769Z,49.17
2022-12-18T08:46:43.564Z,50.67
2022-12-18T08:49:12.634Z,26.13
2022-12-18T08:51:40.662Z,31.42
2022-12-18T08:54:09.326Z,28.92
2022-12-18T08:56:36.784Z,44.22
2022-12-18T08:59:05.663Z,30.77
2022-12-18T09:01:33.125Z,37.25
2022-12-18T09:04:01.460Z,38.42
2022-12-18T09:06:29.262Z,30.60
2022-12-18T09:08:56.805Z,39.08
2022-12-18T09:11:27.324Z,34.47
2022-12-18T09:13:56.344Z,29.05
2022-12-18T09:16:30.342Z,48.95
2022-12-18T09:19:01.056Z,20.33
2022-12-18T09:21:43.392Z,22.60
2022-12-18T09:24:14.893Z,15.23
2022-12-18T09:26:42.246Z,15.75
2022-12-18T09:29:11.392Z,17.23
2022-12-18T09:31:42.203Z,15.63
2022-12-18T09:34:09.826Z,13.60
2022-12-18T09:36:37.279Z,13.67
2022-12-18T09:39:08.482Z,14.73
2022-12-18T09:41:58.361Z,15.77
2022-12-18T09:44:44.476Z,13.30
2022-12-18T09:47:25.197Z,14.85
2022-12-18T09:49:58.133Z,15.57
2022-12-18T09:52:31.309Z,18.65
2022-12-18T09:55:11.009Z,15.85
2022-12-18T09:57:46.879Z,14.43
2022-12-18T10:00:22.025Z,13.50
2022-12-18T10:02:52.219Z,13.70
2022-12-18T10:05:34.695Z,12.50
2022-12-18T10:08:19.965Z,10.25
2022-12-18T10:11:29.249Z,11.13
2022-12-18T10:14:24.612Z,10.93
2022-12-18T10:17:10.732Z,9.73
2022-12-18T10:19:50.531Z,9.55
2022-12-18T10:23:05.163Z,9.07
2022-12-18T10:25:38.765Z,10.30
2022-12-18T10:28:15.018Z,9.90
2022-12-18T10:30:43.954Z,8.77
2022-12-18T10:33:24.022Z,10.35
2022-12-18T10:35:52.780Z,9.52
2022-12-18T10:38:20.590Z,10.05
2022-12-18T10:41:17.168Z,10.02
2022-12-18T10:43:44.766Z,9.50
2022-12-18T10:46:22.039Z,10.30
2022-12-18T10:48:49.788Z,10.90
2022-12-18T10:51:31.441Z,9.63
2022-12-18T10:54:21.446Z,9.98
2022-12-18T10:56:52.073Z,9.30
2022-12-18T10:59:20.419Z,8.68
2022-12-18T11:01:57.927Z,10.15
2022-12-18T11:04:31.563Z,9.57
2022-12-18T11:07:03.385Z,10.48
2022-12-18T11:09:33.529Z,9.67
2022-12-18T11:12:04.958Z,9.38
2022-12-18T11:14:48.668Z,11.15
2022-12-18T11:17:26.445Z,10.38
2022-12-18T11:20:02.493Z,8.75
2022-12-18T11:22:36.045Z,8.53
2022-12-18T11:28:07.016Z,8.73
2022-12-18T11:30:38.526Z,7.78
2022-12-18T11:33:07.969Z,8.27
2022-12-18T11:35:53.876Z,8.40
2022-12-18T11:38:26.602Z,7.40
2022-12-18T11:41:46.089Z,7.85
2022-12-18T11:44:21.316Z,7.75
2022-12-18T11:47:00.786Z,7.95
2022-12-18T11:49:39.466Z,9.00
2022-12-18T11:52:26.435Z,9.30
2022-12-18T11:55:01.564Z,8.73
2022-12-18T11:58:02.764Z,9.05
2022-12-18T12:00:30.616Z,8.90
2022-12-18T12:03:20.798Z,9.40
2022-12-18T12:06:16.036Z,9.82
2022-12-18T12:09:01.284Z,11.60
2022-12-18T12:11:43.549Z,8.75
2022-12-18T12:14:37.089Z,8.48
2022-12-18T12:17:33.576Z,8.83
2022-12-18T12:20:07.815Z,7.90
2022-12-18T12:23:00.716Z,8.05
2022-12-18T12:25:50.176Z,8.07
2022-12-18T12:28:24.264Z,7.72
2022-12-18T12:31:21.947Z,8.20
2022-12-18T12:34:01.600Z,6.82
2022-12-18T12:36:51.603Z,7.25
2022-12-18T12:39:34.126Z,8.00
2022-12-18T12:42:22.182Z,7.93
2022-12-18T12:44:56.417Z,7.83
2022-12-18T12:47:32.609Z,7.93
2022-12-18T12:52:54.930Z,8.00
2022-12-18T12:55:25.389Z,7.28
2022-12-18T12:58:00.822Z,7.30
2022-12-18T13:00:40.447Z,8.13
2022-12-18T13:03:22.894Z,7.15
2022-12-18T13:05:58.345Z,6.97
2022-12-18T13:08:52.113Z,8.02
2022-12-18T13:12:04.212Z,13.63
2022-12-18T13:14:39.581Z,9.90
2022-12-18T13:17:21.222Z,7.70
2022-12-18T13:20:08.031Z,8.05
2022-12-18T13:22:47.768Z,8.20
2022-12-18T13:25:33.904Z,7.80
2022-12-18T13:28:03.100Z,8.88
2022-12-18T13:30:33.429Z,7.40
2022-12-18T13:33:16.411Z,7.38
2022-12-18T13:35:53.129Z,9.05
2022-12-18T13:38:32.865Z,7.77
2022-12-18T13:41:02.576Z,9.55
2022-12-18T13:43:39.216Z,16.10
2022-12-18T13:46:27.542Z,17.33
2022-12-18T13:49:40.511Z,9.85
2022-12-18T13:52:20.889Z,9.37
2022-12-18T13:54:54.312Z,9.30
2022-12-18T13:57:30.613Z,8.82
2022-12-18T13:59:59.863Z,9.32
2022-12-18T14:02:29.488Z,9.80
2022-12-18T14:04:57.316Z,6.90
2022-12-18T14:07:30.854Z,10.20
2022-12-18T14:10:42.078Z,9.50
2022-12-18T14:13:00.705Z,9.63
2022-12-18T14:15:35.394Z,8.85
2022-12-18T14:18:24.475Z,8.83
2022-12-18T14:20:54.609Z,9.57
2022-12-18T14:23:43.474Z,8.73
2022-12-18T14:26:30.616Z,9.40
2022-12-18T14:29:02.349Z,11.93
2022-12-18T14:31:31.886Z,9.53
2022-12-18T14:33:59.469Z,9.63
2022-12-18T14:36:29.527Z,8.88
2022-12-18T14:38:59.575Z,10.02
2022-12-18T14:41:27.771Z,10.45
2022-12-18T14:43:56.051Z,9.07
2022-12-18T14:46:38.959Z,7.80
2022-12-18T14:49:32.779Z,8.07
2022-12-18T14:52:05.906Z,7.97
2022-12-18T14:54:38.552Z,7.47
2022-12-18T14:57:16.666Z,7.50
2022-12-18T14:59:44.098Z,7.95
2022-12-18T15:02:23.683Z,8.45
2022-12-18T15:05:17.630Z,10.50
2022-12-18T15:07:48.501Z,10.32
2022-12-18T15:10:27.596Z,9.53
2022-12-18T15:12:58.134Z,8.00
2022-12-18T15:15:35.130Z,8.40
2022-12-18T15:18:12.001Z,7.65
2022-12-18T15:20:45.501Z,6.97
2022-12-18T15:23:18.122Z,8.57
2022-12-18T15:25:46.942Z,7.20
2022-12-18T15:28:23.453Z,8.02
2022-12-18T15:31:03.757Z,6.93
2022-12-18T15:33:54.130Z,7.82
2022-12-18T15:36:26.314Z,8.27
2022-12-18T15:39:04.562Z,6.60
2022-12-18T15:41:36.062Z,8.35
2022-12-18T15:44:05.209Z,7.93
2022-12-18T15:46:32.800Z,8.13
2022-12-18T15:49:02.637Z,7.40
2022-12-18T15:51:35.880Z,7.97
2022-12-18T15:54:06.091Z,7.88
2022-12-18T15:56:52.555Z,7.65
2022-12-18T15:59:22.068Z,8.70
2022-12-18T16:01:52.082Z,8.10
2022-12-18T16:04:21.864Z,8.48
2022-12-18T16:09:38.449Z,9.00
2022-12-18T16:12:07.509Z,8.75
2022-12-18T16:14:35.041Z,8.60
2022-12-18T16:17:06.632Z,7.55
2022-12-18T16:19:34.374Z,7.93
2022-12-18T16:22:04.615Z,7.47
2022-12-18T16:24:34.313Z,8.13
2022-12-18T16:27:02.256Z,8.90
2022-12-18T16:29:30.557Z,7.80
2022-12-18T16:31:59.860Z,8.77
2022-12-18T16:34:29.920Z,8.60
2022-12-18T16:37:04.798Z,8.73
2022-12-18T16:39:37.534Z,8.43
2022-12-18T16:42:17.699Z,9.15
2022-12-18T16:44:46.267Z,9.32
2022-12-18T16:47:15.337Z,9.05
2022-12-18T16:49:46.139Z,8.50
2022-12-18T16:52:13.756Z,9.37
2022-12-18T16:54:41.311Z,9.05
2022-12-18T16:57:13.556Z,11.20
2022-12-18T16:59:43.529Z,9.00
2022-12-18T17:02:27.030Z,9.98
2022-12-18T17:04:57.527Z,9.37
2022-12-18T17:07:26.585Z,9.60
2022-12-18T17:09:54.579Z,9.85
2022-12-18T17:12:22.492Z,8.85
2022-12-18T17:14:50.632Z,10.73
2022-12-18T17:17:21.504Z,10.88
2022-12-18T17:19:49.735Z,10.13
2022-12-18T17:22:17.608Z,9.15
2022-12-18T17:24:45.007Z,8.95
2022-12-18T17:27:13.787Z,8.43
2022-12-18T17:29:47.402Z,7.80
2022-12-18T17:32:17.064Z,8.60
2022-12-18T17:34:44.745Z,9.13
2022-12-18T17:37:12.551Z,9.25
2022-12-18T17:39:41.200Z,10.80
2022-12-18T17:42:14.586Z,11.63
2022-12-18T17:44:43.608Z,8.43
2022-12-18T17:47:13.377Z,9.68
2022-12-18T17:49:40.965Z,8.90
2022-12-18T17:52:08.502Z,9.20
2022-12-18T17:54:40.102Z,9.23
2022-12-18T17:57:07.962Z,7.82
2022-12-18T17:59:35.567Z,8.40
2022-12-18T18:02:03.416Z,9.05
2022-12-18T18:04:30.949Z,9.13
2022-12-18T18:06:58.497Z,8.50
2022-12-18T18:09:26.198Z,9.02
2022-12-18T18:12:12.582Z,9.55
2022-12-18T18:14:40.114Z,8.93
2022-12-18T18:17:08.339Z,8.85
2022-12-18T18:19:36.082Z,8.40
2022-12-18T18:22:03.741Z,10.32
2022-12-18T18:24:33.651Z,8.75
2022-12-18T18:27:04.040Z,8.73
2022-12-18T18:29:31.742Z,9.65
2022-12-18T18:31:59.701Z,18.77
2022-12-18T18:34:31.006Z,9.32
2022-12-18T18:37:02.424Z,8.65
2022-12-18T18:39:32.462Z,9.40
2022-12-18T18:42:00.415Z,9.05
2022-12-18T18:44:27.848Z,8.60
2022-12-18T18:46:57.149Z,10.93
2022-12-18T18:49:27.992Z,9.05
2022-12-18T18:51:57.911Z,10.98
2022-12-18T18:54:26.930Z,8.95
2022-12-18T18:59:43.741Z,8.82
2022-12-18T19:02:14.010Z,8.90
2022-12-18T19:04:44.050Z,9.52
2022-12-18T19:07:29.542Z,12.00
2022-12-18T19:10:04.638Z,10.75
2022-12-18T19:12:51.425Z,9.63
2022-12-18T19:15:19.037Z,10.32
2022-12-18T19:17:47.453Z,9.38
2022-12-18T19:20:16.182Z,9.30
2022-12-18T19:22:44.797Z,11.30
2022-12-18T19:25:20.153Z,10.93
2022-12-18T19:27:47.956Z,9.63
2022-12-18T19:30:17.224Z,9.80
2022-12-18T19:32:44.597Z,11.88
2022-12-18T19:35:12.241Z,10.43
2022-12-18T19:37:40.603Z,11.20
2022-12-18T19:40:12.324Z,12.88
2022-12-18T19:42:40.191Z,15.50
2022-12-18T19:45:07.831Z,10.98
2022-12-18T19:47:35.305Z,10.60
2022-12-18T19:50:02.890Z,9.63
2022-12-18T19:52:30.379Z,9.93
2022-12-18T19:54:57.853Z,12.35
2022-12-18T19:57:25.300Z,12.70
2022-12-18T19:59:52.719Z,12.18
2022-12-18T20:02:21.504Z,11.90
2022-12-18T20:04:49.746Z,15.38
2022-12-18T20:07:17.108Z,11.50
2022-12-18T20:09:45.655Z,10.80
2022-12-18T20:12:13.131Z,11.73
2022-12-18T20:14:40.665Z,12.30
2022-12-18T20:17:08.071Z,12.55
2022-12-18T20:19:36.313Z,11.27
2022-12-18T20:22:04.007Z,12.02
2022-12-18T20:24:31.468Z,11.68
2022-12-18T20:26:58.833Z,9.07
2022-12-18T20:29:26.223Z,9.00
2022-12-18T20:31:53.812Z,10.65
2022-12-18T20:34:21.281Z,11.48
2022-12-18T20:36:49.166Z,9.60
2022-12-18T20:39:18.121Z,12.73
2022-12-18T20:41:46.650Z,13.05
2022-12-18T20:44:23.193Z,11.93
2022-12-18T20:46:53.591Z,13.90
2022-12-18T20:49:21.390Z,17.23
2022-12-18T20:51:54.387Z,11.10
2022-12-18T20:54:22.870Z,12.90
2022-12-18T20:56:50.982Z,12.18
2022-12-18T20:59:18.604Z,14.45
2022-12-18T21:01:48.325Z,13.02
2022-12-18T21:04:18.616Z,13.90
2022-12-18T21:06:55.661Z,15.77
2022-12-18T21:09:31.576Z,13.73
2022-12-18T21:12:35.009Z,14.70
2022-12-18T21:15:10.688Z,12.52
2022-12-18T21:17:44.605Z,15.65
2022-12-18T21:20:17.910Z,19.95
2022-12-18T21:22:47.073Z,20.42
2022-12-18T21:25:14.925Z,14.23
2022-12-18T21:27:42.339Z,11.02
2022-12-18T21:30:10.241Z,12.32
2022-12-18T21:32:37.939Z,11.77
2022-12-18T21:35:05.868Z,11.55
2022-12-18T21:37:33.735Z,9.80
2022-12-18T21:40:02.497Z,11.13
2022-12-18T21:42:48.705Z,13.13
2022-12-18T21:45:16.309Z,11.07
2022-12-18T21:47:43.784Z,11.00
2022-12-18T21:50:11.449Z,10.20
2022-12-18T21:52:39.629Z,10.20
2022-12-18T21:55:09.827Z,10.25
2022-12-18T21:57:39.601Z,9.93
2022-12-18T22:00:18.198Z,10.65
2022-12-18T22:02:46.453Z,10.48
2022-12-18T22:05:14.095Z,8.85
2022-12-18T22:07:41.912Z,11.93
2022-12-18T22:10:10.180Z,9.65
2022-12-18T22:12:44.201Z,9.65
2022-12-18T22:15:21.234Z,9.48
2022-12-18T22:17:50.878Z,10.73
2022-12-18T22:20:20.125Z,8.57
2022-12-18T22:22:52.614Z,10.90
2022-12-18T22:25:20.507Z,11.18
2022-12-18T22:28:07.943Z,9.25
2022-12-18T22:30:35.902Z,11.27
2022-12-18T22:33:04.169Z,10.38
2022-12-18T22:35:31.626Z,11.80
2022-12-18T22:38:00.266Z,11.20
2022-12-18T22:40:29.252Z,10.27
2022-12-18T22:42:56.741Z,13.82
2022-12-18T22:45:26.244Z,10.98
2022-12-18T22:47:54.197Z,11.02
2022-12-18T22:50:21.836Z,10.75
2022-12-18T22:52:49.353Z,9.82
2022-12-18T22:55:17.616Z,8.38
2022-12-18T22:57:48.504Z,10.95
2022-12-18T23:00:24.270Z,9.73
2022-12-18T23:02:59.685Z,11.40
2022-12-18T23:05:29.276Z,9.68
2022-12-18T23:07:56.814Z,9.95
2022-12-18T23:10:24.606Z,9.45
2022-12-18T23:12:52.103Z,9.00
2022-12-18T23:15:19.868Z,9.40
2022-12-18T23:17:59.118Z,9.40
2022-12-18T23:20:28.770Z,9.52
2022-12-18T23:23:07.573Z,9.52
2022-12-18T23:25:36.011Z,10.35
2022-12-18T23:28:04.293Z,10.70
2022-12-18T23:30:33.077Z,8.63
2022-12-18T23:33:00.565Z,9.05
2022-12-18T23:35:28.257Z,8.82
2022-12-18T23:37:59.775Z,9.13
2022-12-18T23:40:29.240Z,9.82
2022-12-18T23:42:56.988Z,10.05
2022-12-18T23:45:24.534Z,9.60
2022-12-18T23:47:52.184Z,8.85
2022-12-18T23:50:19.654Z,10.55
2022-12-18T23:52:51.496Z,9.68
2022-12-18T23:55:19.334Z,7.82
2022-12-18T23:57:46.907Z,9.27
